sensor_id;sensor_type;location;lat;lon;timestamp;pressure;altitude;pressure_sealevel;temperature;humidity
80137;BME280;69466;55.948;37.484;2024-01-16T00:01:34;97096.59;;;-0.11;75.23
80137;BME280;69466;55.948;37.484;2024-01-16T00:04:00;97103.97;;;-0.07;75.45
80137;BME280;69466;55.948;37.484;2024-01-16T00:06:26;97115.06;;;-0.16;75.39
80137;BME280;69466;55.948;37.484;2024-01-16T00:08:54;97120.38;;;-0.10;75.44
80137;BME280;69466;55.948;37.484;2024-01-16T00:11:20;97116.47;;;-0.07;75.20
80137;BME280;69466;55.948;37.484;2024-01-16T00:13:47;97126.31;;;-0.08;75.16
80137;BME280;69466;55.948;37.484;2024-01-16T00:16:15;97117.31;;;-0.13;74.99
80137;BME280;69466;55.948;37.484;2024-01-16T00:18:41;97114.63;;;-0.13;74.90
80137;BME280;69466;55.948;37.484;2024-01-16T00:21:07;97118.31;;;-0.08;74.78
80137;BME280;69466;55.948;37.484;2024-01-16T00:23:33;97124.06;;;-0.11;74.42
80137;BME280;69466;55.948;37.484;2024-01-16T00:25:59;97122.41;;;-0.05;74.32
80137;BME280;69466;55.948;37.484;2024-01-16T00:28:25;97113.03;;;-0.14;74.61
80137;BME280;69466;55.948;37.484;2024-01-16T00:30:51;97118.38;;;-0.14;74.17
80137;BME280;69466;55.948;37.484;2024-01-16T00:33:17;97120.78;;;-0.13;74.74
80137;BME280;69466;55.948;37.484;2024-01-16T00:35:43;97134.28;;;-0.01;74.04
80137;BME280;69466;55.948;37.484;2024-01-16T00:38:10;97122.34;;;0.02;74.63
80137;BME280;69466;55.948;37.484;2024-01-16T00:40:36;97113.59;;;-0.06;74.23
80137;BME280;69466;55.948;37.484;2024-01-16T00:43:03;97123.19;;;0.02;74.04
80137;BME280;69466;55.948;37.484;2024-01-16T00:45:30;97127.69;;;0.02;73.64
80137;BME280;69466;55.948;37.484;2024-01-16T00:47:57;97126.47;;;-0.03;74.55
80137;BME280;69466;55.948;37.484;2024-01-16T00:50:23;97128.31;;;-0.03;73.90
80137;BME280;69466;55.948;37.484;2024-01-16T00:52:50;97110.06;;;0.00;73.91
80137;BME280;69466;55.948;37.484;2024-01-16T00:55:16;97126.47;;;0.04;74.29
80137;BME280;69466;55.948;37.484;2024-01-16T00:57:43;97124.38;;;0.06;74.08
80137;BME280;69466;55.948;37.484;2024-01-16T01:00:09;97109.03;;;0.02;74.44
80137;BME280;69466;55.948;37.484;2024-01-16T01:02:37;97117.47;;;-0.02;74.18
80137;BME280;69466;55.948;37.484;2024-01-16T01:05:04;97117.66;;;0.04;74.40
80137;BME280;69466;55.948;37.484;2024-01-16T01:07:30;97116.38;;;0.06;74.23
80137;BME280;69466;55.948;37.484;2024-01-16T01:09:56;97120.69;;;0.07;73.82
80137;BME280;69466;55.948;37.484;2024-01-16T01:12:22;97103.75;;;-0.05;74.15
80137;BME280;69466;55.948;37.484;2024-01-16T01:14:49;97116.44;;;-0.01;73.97
80137;BME280;69466;55.948;37.484;2024-01-16T01:17:15;97109.88;;;-0.05;73.68
80137;BME280;69466;55.948;37.484;2024-01-16T01:19:41;97115.00;;;-0.03;73.78
80137;BME280;69466;55.948;37.484;2024-01-16T01:22:07;97106.63;;;-0.07;74.42
80137;BME280;69466;55.948;37.484;2024-01-16T01:24:33;97105.97;;;-0.02;73.82
80137;BME280;69466;55.948;37.484;2024-01-16T01:27:00;97102.13;;;-0.13;73.83
80137;BME280;69466;55.948;37.484;2024-01-16T01:29:26;97106.16;;;0.03;74.02
80137;BME280;69466;55.948;37.484;2024-01-16T01:31:52;97101.88;;;-0.05;74.16
80137;BME280;69466;55.948;37.484;2024-01-16T01:34:18;97100.47;;;-0.07;74.13
80137;BME280;69466;55.948;37.484;2024-01-16T01:36:45;97104.41;;;-0.10;74.79
80137;BME280;69466;55.948;37.484;2024-01-16T01:39:11;97090.88;;;-0.15;74.51
80137;BME280;69466;55.948;37.484;2024-01-16T01:41:38;97085.16;;;-0.18;74.93
80137;BME280;69466;55.948;37.484;2024-01-16T01:44:06;97099.72;;;-0.14;75.21
80137;BME280;69466;55.948;37.484;2024-01-16T01:47:05;97095.78;;;-0.12;75.19
80137;BME280;69466;55.948;37.484;2024-01-16T01:49:31;97094.19;;;-0.19;75.11
80137;BME280;69466;55.948;37.484;2024-01-16T01:51:58;97088.03;;;-0.20;75.42
80137;BME280;69466;55.948;37.484;2024-01-16T01:54:24;97099.09;;;-0.16;75.00
80137;BME280;69466;55.948;37.484;2024-01-16T01:56:52;97093.38;;;-0.20;75.24
80137;BME280;69466;55.948;37.484;2024-01-16T01:59:19;97059.47;;;-0.37;75.40
80137;BME280;69466;55.948;37.484;2024-01-16T02:01:48;97089.09;;;-0.27;75.34
80137;BME280;69466;55.948;37.484;2024-01-16T02:04:16;97091.94;;;-0.22;75.25
80137;BME280;69466;55.948;37.484;2024-01-16T02:06:43;97095.81;;;-0.18;75.08
80137;BME280;69466;55.948;37.484;2024-01-16T02:09:12;97100.38;;;-0.25;74.56
80137;BME280;69466;55.948;37.484;2024-01-16T02:11:42;97096.03;;;-0.20;74.73
80137;BME280;69466;55.948;37.484;2024-01-16T02:14:11;97092.25;;;-0.37;74.76
80137;BME280;69466;55.948;37.484;2024-01-16T02:16:41;97108.34;;;-0.25;74.64
80137;BME280;69466;55.948;37.484;2024-01-16T02:19:08;97107.09;;;-0.23;74.82
80137;BME280;69466;55.948;37.484;2024-01-16T02:21:48;97105.31;;;-0.29;74.77
80137;BME280;69466;55.948;37.484;2024-01-16T02:24:16;97109.19;;;-0.25;74.84
80137;BME280;69466;55.948;37.484;2024-01-16T02:26:43;97106.09;;;-0.22;74.33
80137;BME280;69466;55.948;37.484;2024-01-16T02:29:09;97103.47;;;-0.28;74.21
80137;BME280;69466;55.948;37.484;2024-01-16T02:31:35;97110.59;;;-0.22;74.65
80137;BME280;69466;55.948;37.484;2024-01-16T02:34:02;97103.22;;;-0.20;73.50
80137;BME280;69466;55.948;37.484;2024-01-16T02:36:30;97105.25;;;-0.16;73.98
80137;BME280;69466;55.948;37.484;2024-01-16T02:38:56;97109.72;;;-0.10;73.54
80137;BME280;69466;55.948;37.484;2024-01-16T02:41:23;97095.03;;;-0.25;73.28
80137;BME280;69466;55.948;37.484;2024-01-16T02:43:49;97120.97;;;-0.08;73.63
80137;BME280;69466;55.948;37.484;2024-01-16T02:46:15;97105.88;;;-0.20;73.76
80137;BME280;69466;55.948;37.484;2024-01-16T02:51:51;97110.75;;;-0.11;73.18
80137;BME280;69466;55.948;37.484;2024-01-16T02:54:22;97114.78;;;-0.02;73.53
80137;BME280;69466;55.948;37.484;2024-01-16T02:56:48;97124.47;;;-0.07;73.50
80137;BME280;69466;55.948;37.484;2024-01-16T02:59:14;97118.38;;;-0.14;73.47
80137;BME280;69466;55.948;37.484;2024-01-16T03:01:39;97120.41;;;-0.16;73.76
80137;BME280;69466;55.948;37.484;2024-01-16T03:04:05;97126.75;;;-0.11;73.82
80137;BME280;69466;55.948;37.484;2024-01-16T03:06:31;97119.16;;;-0.14;74.30
80137;BME280;69466;55.948;37.484;2024-01-16T03:08:57;97123.28;;;-0.18;73.82
80137;BME280;69466;55.948;37.484;2024-01-16T03:11:25;97124.09;;;-0.17;74.40
80137;BME280;69466;55.948;37.484;2024-01-16T03:13:52;97125.72;;;-0.16;74.02
80137;BME280;69466;55.948;37.484;2024-01-16T03:16:18;97137.41;;;-0.11;74.27
80137;BME280;69466;55.948;37.484;2024-01-16T03:18:45;97131.44;;;-0.13;73.81
80137;BME280;69466;55.948;37.484;2024-01-16T03:21:13;97126.34;;;-0.14;74.29
80137;BME280;69466;55.948;37.484;2024-01-16T03:23:39;97125.06;;;-0.05;73.85
80137;BME280;69466;55.948;37.484;2024-01-16T03:26:05;97118.31;;;-0.08;73.88
80137;BME280;69466;55.948;37.484;2024-01-16T03:28:31;97117.94;;;-0.11;74.04
80137;BME280;69466;55.948;37.484;2024-01-16T03:30:57;97122.69;;;-0.20;74.32
80137;BME280;69466;55.948;37.484;2024-01-16T03:33:22;97123.25;;;-0.11;74.65
80137;BME280;69466;55.948;37.484;2024-01-16T03:35:49;97128.41;;;-0.23;74.11
80137;BME280;69466;55.948;37.484;2024-01-16T03:38:15;97138.03;;;-0.15;74.27
80137;BME280;69466;55.948;37.484;2024-01-16T03:40:40;97118.19;;;-0.19;74.14
80137;BME280;69466;55.948;37.484;2024-01-16T03:43:06;97122.44;;;-0.12;73.99
80137;BME280;69466;55.948;37.484;2024-01-16T03:45:32;97101.78;;;-0.23;73.75
80137;BME280;69466;55.948;37.484;2024-01-16T03:47:58;97113.88;;;-0.20;74.50
80137;BME280;69466;55.948;37.484;2024-01-16T03:50:24;97107.53;;;-0.19;74.25
80137;BME280;69466;55.948;37.484;2024-01-16T03:52:50;97117.53;;;-0.15;74.42
80137;BME280;69466;55.948;37.484;2024-01-16T03:55:16;97115.72;;;-0.21;74.58
80137;BME280;69466;55.948;37.484;2024-01-16T03:57:42;97126.16;;;-0.19;74.09
80137;BME280;69466;55.948;37.484;2024-01-16T04:00:11;97126.00;;;-0.24;74.61
80137;BME280;69466;55.948;37.484;2024-01-16T04:02:38;97116.78;;;-0.28;74.63
80137;BME280;69466;55.948;37.484;2024-01-16T04:05:04;97130.44;;;-0.18;74.57
80137;BME280;69466;55.948;37.484;2024-01-16T04:07:31;97124.72;;;-0.15;74.38
80137;BME280;69466;55.948;37.484;2024-01-16T04:09:57;97123.84;;;-0.09;73.88
80137;BME280;69466;55.948;37.484;2024-01-16T04:12:23;97106.31;;;-0.23;74.32
80137;BME280;69466;55.948;37.484;2024-01-16T04:14:48;97123.50;;;-0.19;73.92
80137;BME280;69466;55.948;37.484;2024-01-16T04:17:14;97126.34;;;-0.14;73.41
80137;BME280;69466;55.948;37.484;2024-01-16T04:19:40;97122.06;;;-0.15;74.01
80137;BME280;69466;55.948;37.484;2024-01-16T04:22:06;97130.63;;;-0.13;73.95
80137;BME280;69466;55.948;37.484;2024-01-16T04:24:32;97127.97;;;-0.13;73.38
80137;BME280;69466;55.948;37.484;2024-01-16T04:26:58;97124.06;;;-0.11;74.31
80137;BME280;69466;55.948;37.484;2024-01-16T04:29:24;97120.84;;;-0.19;73.82
80137;BME280;69466;55.948;37.484;2024-01-16T04:31:50;97126.56;;;-0.22;73.59
80137;BME280;69466;55.948;37.484;2024-01-16T04:34:16;97128.19;;;-0.15;73.82
80137;BME280;69466;55.948;37.484;2024-01-16T04:36:42;97112.41;;;-0.16;73.57
80137;BME280;69466;55.948;37.484;2024-01-16T04:39:10;97123.91;;;-0.16;73.38
80137;BME280;69466;55.948;37.484;2024-01-16T04:41:36;97093.47;;;-0.39;74.10
80137;BME280;69466;55.948;37.484;2024-01-16T04:44:02;97139.25;;;-0.18;73.94
80137;BME280;69466;55.948;37.484;2024-01-16T04:46:28;97139.50;;;-0.19;74.14
80137;BME280;69466;55.948;37.484;2024-01-16T04:48:55;97138.69;;;-0.20;74.32
80137;BME280;69466;55.948;37.484;2024-01-16T04:51:20;97137.88;;;-0.27;73.67
80137;BME280;69466;55.948;37.484;2024-01-16T04:53:48;97148.72;;;-0.22;74.43
80137;BME280;69466;55.948;37.484;2024-01-16T04:56:14;97151.44;;;-0.28;74.34
80137;BME280;69466;55.948;37.484;2024-01-16T04:58:43;97155.09;;;-0.29;74.71
80137;BME280;69466;55.948;37.484;2024-01-16T05:01:10;97138.56;;;-0.38;75.02
80137;BME280;69466;55.948;37.484;2024-01-16T05:03:38;97154.50;;;-0.31;74.89
80137;BME280;69466;55.948;37.484;2024-01-16T05:06:04;97153.50;;;-0.37;75.37
80137;BME280;69466;55.948;37.484;2024-01-16T05:08:31;97161.28;;;-0.35;75.17
80137;BME280;69466;55.948;37.484;2024-01-16T05:10:57;97158.66;;;-0.42;75.05
80137;BME280;69466;55.948;37.484;2024-01-16T05:13:25;97149.59;;;-0.41;74.68
80137;BME280;69466;55.948;37.484;2024-01-16T05:15:50;97159.47;;;-0.41;74.01
80137;BME280;69466;55.948;37.484;2024-01-16T05:18:20;97153.53;;;-0.43;73.43
80137;BME280;69466;55.948;37.484;2024-01-16T05:20:52;97166.59;;;-0.29;73.80
80137;BME280;69466;55.948;37.484;2024-01-16T05:23:19;97152.06;;;-0.39;73.70
80137;BME280;69466;55.948;37.484;2024-01-16T05:25:45;97168.63;;;-0.31;73.17
80137;BME280;69466;55.948;37.484;2024-01-16T05:28:11;97154.31;;;-0.36;73.03
80137;BME280;69466;55.948;37.484;2024-01-16T05:30:37;97165.56;;;-0.28;73.50
80137;BME280;69466;55.948;37.484;2024-01-16T05:33:03;97152.88;;;-0.32;73.40
80137;BME280;69466;55.948;37.484;2024-01-16T05:35:29;97157.16;;;-0.31;72.60
80137;BME280;69466;55.948;37.484;2024-01-16T05:37:56;97171.06;;;-0.23;72.82
80137;BME280;69466;55.948;37.484;2024-01-16T05:40:22;97175.81;;;-0.31;72.91
80137;BME280;69466;55.948;37.484;2024-01-16T05:42:49;97165.16;;;-0.31;72.44
80137;BME280;69466;55.948;37.484;2024-01-16T05:45:16;97164.75;;;-0.28;72.91
80137;BME280;69466;55.948;37.484;2024-01-16T05:51:14;97138.56;;;-0.38;72.50
80137;BME280;69466;55.948;37.484;2024-01-16T05:53:41;97124.41;;;-0.38;72.41
80137;BME280;69466;55.948;37.484;2024-01-16T05:56:07;97148.94;;;-0.23;72.23
80137;BME280;69466;55.948;37.484;2024-01-16T05:58:34;97145.47;;;-0.30;72.18
80137;BME280;69466;55.948;37.484;2024-01-16T06:01:02;97112.59;;;-0.56;72.00
80137;BME280;69466;55.948;37.484;2024-01-16T06:03:28;97152.06;;;-0.33;72.61
80137;BME280;69466;55.948;37.484;2024-01-16T06:05:58;97138.16;;;-0.41;72.31
80137;BME280;69466;55.948;37.484;2024-01-16T06:08:25;97154.09;;;-0.28;72.05
80137;BME280;69466;55.948;37.484;2024-01-16T06:10:51;97132.84;;;-0.48;71.88
80137;BME280;69466;55.948;37.484;2024-01-16T06:13:20;97151.19;;;-0.27;72.10
80137;BME280;69466;55.948;37.484;2024-01-16T06:15:48;97161.91;;;-0.33;71.70
80137;BME280;69466;55.948;37.484;2024-01-16T06:18:14;97143.50;;;-0.48;71.80
80137;BME280;69466;55.948;37.484;2024-01-16T06:21:13;97162.72;;;-0.33;72.20
80137;BME280;69466;55.948;37.484;2024-01-16T06:24:10;97178.28;;;-0.30;72.21
80137;BME280;69466;55.948;37.484;2024-01-16T06:26:37;97179.34;;;-0.37;71.76
80137;BME280;69466;55.948;37.484;2024-01-16T06:29:03;97189.34;;;-0.33;72.47
80137;BME280;69466;55.948;37.484;2024-01-16T06:31:29;97167.63;;;-0.36;73.07
80137;BME280;69466;55.948;37.484;2024-01-16T06:33:55;97177.50;;;-0.37;73.04
80137;BME280;69466;55.948;37.484;2024-01-16T06:36:21;97180.97;;;-0.43;72.35
80137;BME280;69466;55.948;37.484;2024-01-16T06:38:47;97198.16;;;-0.32;72.36
80137;BME280;69466;55.948;37.484;2024-01-16T06:41:13;97201.22;;;-0.35;72.44
80137;BME280;69466;55.948;37.484;2024-01-16T06:43:39;97200.22;;;-0.34;71.79
80137;BME280;69466;55.948;37.484;2024-01-16T06:46:05;97176.72;;;-0.51;72.73
80137;BME280;69466;55.948;37.484;2024-01-16T06:48:31;97191.81;;;-0.38;72.30
80137;BME280;69466;55.948;37.484;2024-01-16T06:50:57;97186.88;;;-0.28;71.68
80137;BME280;69466;55.948;37.484;2024-01-16T06:53:23;97188.50;;;-0.27;71.56
80137;BME280;69466;55.948;37.484;2024-01-16T06:55:49;97182.38;;;-0.40;71.69
80137;BME280;69466;55.948;37.484;2024-01-16T06:58:16;97169.94;;;-0.47;71.66
80137;BME280;69466;55.948;37.484;2024-01-16T07:00:42;97161.53;;;-0.50;71.72
80137;BME280;69466;55.948;37.484;2024-01-16T07:03:08;97196.69;;;-0.22;71.28
80137;BME280;69466;55.948;37.484;2024-01-16T07:05:34;97193.88;;;-0.33;71.72
80137;BME280;69466;55.948;37.484;2024-01-16T07:08:00;97182.13;;;-0.26;71.58
80137;BME280;69466;55.948;37.484;2024-01-16T07:10:26;97181.94;;;-0.31;71.26
80137;BME280;69466;55.948;37.484;2024-01-16T07:12:53;97165.38;;;-0.39;71.28
80137;BME280;69466;55.948;37.484;2024-01-16T07:15:27;97118.97;;;-0.63;71.67
80137;BME280;69466;55.948;37.484;2024-01-16T07:17:54;97182.34;;;-0.27;71.25
80137;BME280;69466;55.948;37.484;2024-01-16T07:20:22;97124.31;;;-0.70;71.25
80137;BME280;69466;55.948;37.484;2024-01-16T07:22:48;97173.56;;;-0.41;71.41
80137;BME280;69466;55.948;37.484;2024-01-16T07:25:15;97175.47;;;-0.48;71.28
80137;BME280;69466;55.948;37.484;2024-01-16T07:27:41;97201.66;;;-0.38;71.01
80137;BME280;69466;55.948;37.484;2024-01-16T07:30:10;97196.53;;;-0.40;71.15
80137;BME280;69466;55.948;37.484;2024-01-16T07:32:38;97200.44;;;-0.42;70.92
80137;BME280;69466;55.948;37.484;2024-01-16T07:35:08;97202.28;;;-0.43;71.42
80137;BME280;69466;55.948;37.484;2024-01-16T07:37:37;97201.66;;;-0.38;71.28
80137;BME280;69466;55.948;37.484;2024-01-16T07:40:04;97184.47;;;-0.42;70.84
80137;BME280;69466;55.948;37.484;2024-01-16T07:42:32;97190.56;;;-0.29;70.85
80137;BME280;69466;55.948;37.484;2024-01-16T07:45:01;97179.53;;;-0.32;70.28
80137;BME280;69466;55.948;37.484;2024-01-16T07:47:32;97175.41;;;-0.28;70.44
80137;BME280;69466;55.948;37.484;2024-01-16T07:50:02;97174.22;;;-0.46;70.97
80137;BME280;69466;55.948;37.484;2024-01-16T07:52:30;97176.44;;;-0.36;70.99
80137;BME280;69466;55.948;37.484;2024-01-16T07:54:56;97170.28;;;-0.36;70.11
80137;BME280;69466;55.948;37.484;2024-01-16T07:57:23;97182.97;;;-0.32;70.57
80137;BME280;69466;55.948;37.484;2024-01-16T07:59:49;97120.22;;;-0.72;70.23
80137;BME280;69466;55.948;37.484;2024-01-16T08:02:15;97175.44;;;-0.41;70.41
80137;BME280;69466;55.948;37.484;2024-01-16T08:04:41;97161.50;;;-0.43;70.24
80137;BME280;69466;55.948;37.484;2024-01-16T08:07:07;97154.00;;;-0.60;70.56
80137;BME280;69466;55.948;37.484;2024-01-16T08:09:33;97165.25;;;-0.58;70.27
80137;BME280;69466;55.948;37.484;2024-01-16T08:11:59;97161.13;;;-0.54;70.16
80137;BME280;69466;55.948;37.484;2024-01-16T08:14:27;97171.34;;;-0.44;69.96
80137;BME280;69466;55.948;37.484;2024-01-16T08:16:54;97142.50;;;-0.54;69.50
80137;BME280;69466;55.948;37.484;2024-01-16T08:19:21;97159.44;;;-0.35;69.17
80137;BME280;69466;55.948;37.484;2024-01-16T08:21:47;97161.91;;;-0.40;69.01
80137;BME280;69466;55.948;37.484;2024-01-16T08:24:16;97128.97;;;-0.59;69.04
80137;BME280;69466;55.948;37.484;2024-01-16T08:26:42;97157.78;;;-0.29;68.92
80137;BME280;69466;55.948;37.484;2024-01-16T08:29:09;97136.97;;;-0.52;68.77
80137;BME280;69466;55.948;37.484;2024-01-16T08:31:35;97144.91;;;-0.46;68.22
80137;BME280;69466;55.948;37.484;2024-01-16T08:34:01;97152.06;;;-0.33;68.28
80137;BME280;69466;55.948;37.484;2024-01-16T08:36:28;97130.97;;;-0.41;68.01
80137;BME280;69466;55.948;37.484;2024-01-16T08:38:54;97160.25;;;-0.28;67.85
80137;BME280;69466;55.948;37.484;2024-01-16T08:41:21;97125.44;;;-0.39;68.08
80137;BME280;69466;55.948;37.484;2024-01-16T08:43:46;97146.63;;;-0.13;67.68
80137;BME280;69466;55.948;37.484;2024-01-16T08:46:13;97153.00;;;-0.14;67.06
80137;BME280;69466;55.948;37.484;2024-01-16T08:48:40;97154.63;;;-0.13;67.01
80137;BME280;69466;55.948;37.484;2024-01-16T08:51:08;97154.56;;;0.00;66.54
80137;BME280;69466;55.948;37.484;2024-01-16T08:53:37;97160.47;;;0.09;65.80
80137;BME280;69466;55.948;37.484;2024-01-16T08:56:04;97141.19;;;0.07;65.97
80137;BME280;69466;55.948;37.484;2024-01-16T08:58:32;97108.28;;;-0.12;65.40
80137;BME280;69466;55.948;37.484;2024-01-16T09:01:03;97155.34;;;0.07;65.41
80137;BME280;69466;55.948;37.484;2024-01-16T09:03:32;97140.34;;;0.13;65.48
80137;BME280;69466;55.948;37.484;2024-01-16T09:05:59;97156.34;;;0.44;65.19
80137;BME280;69466;55.948;37.484;2024-01-16T09:08:26;97134.31;;;0.24;65.21
80137;BME280;69466;55.948;37.484;2024-01-16T09:11:05;97166.28;;;0.30;65.58
80137;BME280;69466;55.948;37.484;2024-01-16T09:13:32;97159.00;;;0.13;65.11
80137;BME280;69466;55.948;37.484;2024-01-16T09:15:58;97158.56;;;0.22;65.10
80137;BME280;69466;55.948;37.484;2024-01-16T09:18:24;97133.41;;;0.05;65.89
80137;BME280;69466;55.948;37.484;2024-01-16T09:20:50;97158.38;;;0.17;65.32
80137;BME280;69466;55.948;37.484;2024-01-16T09:23:15;97135.41;;;0.16;65.16
80137;BME280;69466;55.948;37.484;2024-01-16T09:25:41;97115.81;;;-0.03;65.45
80137;BME280;69466;55.948;37.484;2024-01-16T09:28:07;97123.34;;;0.07;65.24
80137;BME280;69466;55.948;37.484;2024-01-16T09:30:34;97096.78;;;-0.06;65.47
80137;BME280;69466;55.948;37.484;2024-01-16T09:33:01;97139.31;;;0.14;65.18
80137;BME280;69466;55.948;37.484;2024-01-16T09:35:30;97122.91;;;0.10;65.19
80137;BME280;69466;55.948;37.484;2024-01-16T09:37:56;97095.50;;;0.03;64.90
80137;BME280;69466;55.948;37.484;2024-01-16T09:40:22;97107.53;;;0.12;64.82
80137;BME280;69466;55.948;37.484;2024-01-16T09:42:48;97114.88;;;0.17;64.50
80137;BME280;69466;55.948;37.484;2024-01-16T09:45:19;97113.44;;;0.21;64.03
80137;BME280;69466;55.948;37.484;2024-01-16T09:47:47;97130.63;;;0.25;64.26
80137;BME280;69466;55.948;37.484;2024-01-16T09:50:16;97138.19;;;0.28;64.26
80137;BME280;69466;55.948;37.484;2024-01-16T09:52:46;97128.13;;;0.30;64.26
80137;BME280;69466;55.948;37.484;2024-01-16T09:55:13;97111.88;;;0.07;64.81
80137;BME280;69466;55.948;37.484;2024-01-16T09:57:45;97137.94;;;0.36;64.45
80137;BME280;69466;55.948;37.484;2024-01-16T10:00:17;97120.25;;;0.10;64.53
80137;BME280;69466;55.948;37.484;2024-01-16T10:02:43;97137.25;;;0.16;64.91
80137;BME280;69466;55.948;37.484;2024-01-16T10:05:11;97102.28;;;-0.01;64.67
80137;BME280;69466;55.948;37.484;2024-01-16T10:07:42;97127.28;;;0.05;65.01
80137;BME280;69466;55.948;37.484;2024-01-16T10:10:12;97119.03;;;0.06;65.13
80137;BME280;69466;55.948;37.484;2024-01-16T10:12:40;97090.91;;;-0.21;65.39
80137;BME280;69466;55.948;37.484;2024-01-16T10:15:08;97102.28;;;-0.01;65.00
80137;BME280;69466;55.948;37.484;2024-01-16T10:17:39;97143.94;;;0.31;64.80
80137;BME280;69466;55.948;37.484;2024-01-16T10:20:06;97131.53;;;0.43;65.24
80137;BME280;69466;55.948;37.484;2024-01-16T10:22:35;97072.56;;;0.27;64.32
80137;BME280;69466;55.948;37.484;2024-01-16T10:25:12;97111.94;;;0.56;64.32
80137;BME280;69466;55.948;37.484;2024-01-16T10:27:42;97111.16;;;0.49;63.75
80137;BME280;69466;55.948;37.484;2024-01-16T10:30:14;97091.47;;;0.50;64.12
80137;BME280;69466;55.948;37.484;2024-01-16T10:32:43;97095.25;;;0.61;64.13
80137;BME280;69466;55.948;37.484;2024-01-16T10:35:13;97100.19;;;0.64;64.14
80137;BME280;69466;55.948;37.484;2024-01-16T10:37:47;97092.75;;;0.66;64.04
80137;BME280;69466;55.948;37.484;2024-01-16T10:40:21;97096.47;;;0.65;63.61
80137;BME280;69466;55.948;37.484;2024-01-16T10:43:04;97087.91;;;0.56;63.68
80137;BME280;69466;55.948;37.484;2024-01-16T10:45:31;97065.44;;;0.46;63.54
80137;BME280;69466;55.948;37.484;2024-01-16T10:48:06;97072.03;;;0.43;63.61
80137;BME280;69466;55.948;37.484;2024-01-16T10:50:34;97065.22;;;0.47;63.41
80137;BME280;69466;55.948;37.484;2024-01-16T10:53:04;97083.41;;;0.57;63.69
80137;BME280;69466;55.948;37.484;2024-01-16T10:55:31;97068.59;;;0.36;64.26
80137;BME280;69466;55.948;37.484;2024-01-16T10:57:58;97059.28;;;0.20;64.57
80137;BME280;69466;55.948;37.484;2024-01-16T11:00:28;97079.69;;;0.33;64.08
80137;BME280;69466;55.948;37.484;2024-01-16T11:05:23;97049.22;;;0.22;64.41
80137;BME280;69466;55.948;37.484;2024-01-16T11:07:50;97037.44;;;0.05;64.52
80137;BME280;69466;55.948;37.484;2024-01-16T11:10:17;97043.22;;;0.02;64.70
80137;BME280;69466;55.948;37.484;2024-01-16T11:12:46;97043.09;;;0.15;64.70
80137;BME280;69466;55.948;37.484;2024-01-16T11:15:16;97034.03;;;-0.09;65.07
80137;BME280;69466;55.948;37.484;2024-01-16T11:32:48;97016.00;;;-0.38;65.54
80137;BME280;69466;55.948;37.484;2024-01-16T11:35:31;97067.66;;;-0.08;65.44
80137;BME280;69466;55.948;37.484;2024-01-16T11:51:47;97044.13;;;-0.11;65.90
80137;BME280;69466;55.948;37.484;2024-01-16T11:54:15;97021.25;;;-0.25;65.93
80137;BME280;69466;55.948;37.484;2024-01-16T12:00:36;97036.13;;;-0.11;65.75
80137;BME280;69466;55.948;37.484;2024-01-16T12:10:26;97037.97;;;-0.11;65.64
80137;BME280;69466;55.948;37.484;2024-01-16T12:25:42;96994.47;;;-0.36;65.57
80137;BME280;69466;55.948;37.484;2024-01-16T12:28:13;97007.63;;;-0.41;66.26
80137;BME280;69466;55.948;37.484;2024-01-16T13:15:17;96958.09;;;-0.87;66.66
80137;BME280;69466;55.948;37.484;2024-01-16T13:17:43;97010.78;;;-0.58;67.00
80137;BME280;69466;55.948;37.484;2024-01-16T13:20:09;96971.13;;;-0.72;66.91
80137;BME280;69466;55.948;37.484;2024-01-16T13:22:36;96969.97;;;-0.83;67.38
80137;BME280;69466;55.948;37.484;2024-01-16T13:32:53;96941.63;;;-1.09;66.77
80137;BME280;69466;55.948;37.484;2024-01-16T13:35:41;96974.06;;;-0.87;67.13
80137;BME280;69466;55.948;37.484;2024-01-16T13:41:39;96981.47;;;-0.89;67.57
80137;BME280;69466;55.948;37.484;2024-01-16T13:48:27;97003.13;;;-0.79;67.20
80137;BME280;69466;55.948;37.484;2024-01-16T13:52:20;97008.84;;;-0.82;67.38
80137;BME280;69466;55.948;37.484;2024-01-16T13:54:51;96937.00;;;-1.26;67.77
80137;BME280;69466;55.948;37.484;2024-01-16T13:57:59;96995.97;;;-0.85;67.21
80137;BME280;69466;55.948;37.484;2024-01-16T14:00:29;96960.81;;;-1.00;67.70
80137;BME280;69466;55.948;37.484;2024-01-16T14:02:56;96927.81;;;-1.30;67.73
80137;BME280;69466;55.948;37.484;2024-01-16T14:05:22;96998.44;;;-0.90;67.85
80137;BME280;69466;55.948;37.484;2024-01-16T14:07:52;96939.00;;;-1.15;67.57
80137;BME280;69466;55.948;37.484;2024-01-16T14:10:26;96978.81;;;-0.96;67.94
80137;BME280;69466;55.948;37.484;2024-01-16T14:12:55;96972.91;;;-0.98;67.87
80137;BME280;69466;55.948;37.484;2024-01-16T14:15:21;96995.19;;;-0.92;67.70
80137;BME280;69466;55.948;37.484;2024-01-16T14:17:59;96966.63;;;-1.16;67.32
80137;BME280;69466;55.948;37.484;2024-01-16T14:20:26;96966.19;;;-1.13;68.22
80137;BME280;69466;55.948;37.484;2024-01-16T14:23:04;96954.53;;;-1.06;67.99
80137;BME280;69466;55.948;37.484;2024-01-16T14:25:33;96951.44;;;-1.03;67.94
80137;BME280;69466;55.948;37.484;2024-01-16T14:28:01;96932.88;;;-1.16;67.60
80137;BME280;69466;55.948;37.484;2024-01-16T14:34:12;96971.84;;;-0.90;67.48
80137;BME280;69466;55.948;37.484;2024-01-16T14:36:47;96992.25;;;-0.77;68.12
80137;BME280;69466;55.948;37.484;2024-01-16T14:39:14;96955.91;;;-0.97;67.64
80137;BME280;69466;55.948;37.484;2024-01-16T14:41:45;96951.63;;;-1.04;68.04
80137;BME280;69466;55.948;37.484;2024-01-16T14:44:13;96987.34;;;-0.80;67.86
80137;BME280;69466;55.948;37.484;2024-01-16T14:50:27;96955.75;;;-1.08;67.79
80137;BME280;69466;55.948;37.484;2024-01-16T14:52:53;96988.06;;;-0.98;68.13
80137;BME280;69466;55.948;37.484;2024-01-16T14:55:19;96978.38;;;-0.86;67.54
80137;BME280;69466;55.948;37.484;2024-01-16T14:57:48;96969.78;;;-0.88;68.07
80137;BME280;69466;55.948;37.484;2024-01-16T15:03:52;96909.13;;;-1.17;67.52
80137;BME280;69466;55.948;37.484;2024-01-16T15:06:48;96980.94;;;-0.73;67.72
80137;BME280;69466;55.948;37.484;2024-01-16T15:09:17;96985.88;;;-0.70;67.82
80137;BME280;69466;55.948;37.484;2024-01-16T15:11:43;96956.88;;;-0.91;67.43